Aviation Digital Data Service (ADDS)

Output produced by METARs form (1421 UTC 19 April 2019)
found at http://www.aviationweather.gov/metar/data/
 
Forecast for: RPMD (DAVAO/FRANCISCO , PH)
Text: TAF RPMD 191100Z 1912/2012 04006KT 9999 FEW016
Forecast period: 1200 UTC 19 April 2019 to 1200 UTC 20 April 2019
Forecast type: FROM: standard forecast or significant change
Winds: from the NE (40 degrees) at 7 MPH (6 knots; 3.1 m/s)
Visibility: 6 or more miles 10+ km)
Ceiling: at least 12,000 feet AGL
Clouds: few clouds at 1600 feet AGL
Weather: no significant weather forecast for this period
Text: TEMPO 1912/1918 20005KT SCT016
Forecast period: 1200 to 1800 UTC 19 April 2019
Forecast type: TEMPORARY: The following changes expected for less than half the time period
Winds: from the SSW (200 degrees) at 6 MPH (5 knots; 2.6 m/s)
Visibility: missing
Ceiling: at least 12,000 feet AGL
Clouds: scattered clouds at 1600 feet AGL
Weather: no significant weather forecast for this period
Text: TEMPO 1918/1924 36004KT FEW016 SCT290
Forecast period: 1800 UTC 19 April 2019 to 0000 UTC 20 April 2019
Forecast type: TEMPORARY: The following changes expected for less than half the time period
Winds: from the N (360 degrees) at 5 MPH (4 knots; 2.1 m/s)
Visibility: missing
Ceiling: at least 12,000 feet AGL
Clouds: few clouds at 1600 feet AGL
scattered clouds at 29000 feet AGL
Weather: no significant weather forecast for this period